Steelton, PA (17113)

3:36 AM EST on February 09, 2016 (GMT -0500)
APRSWXNET | | Change Station
CLOSE
Current Station
Personal Weather Station
Location: New Cumberland, PA
Elevation: 426 ft
Nearby Weather Stations
Active Advisory: Winter Weather Advisory

Elev 426 ft 40.23 °N, 76.88 °W | Updated 31 minutes ago

Overcast
Overcast
31 °F
Feels Like 31 °F
N
0
Wind Variable Wind from NE
Gusts 4.0 mph

Today
High -- | Low -- °F
--% Chance of Precip.
Yesterday
High -- | Low -- °F
Precip. -- in
Pressure 29.62 in
Visibility 9.0 miles
Clouds Overcast 700 ft
Windchill 31 °F
Dew Point 30 °F
Humidity 95%
Rainfall in
Snow Depth Not available.
7:08 AM 5:35 PM
New Moon, 1% visible
METAR KCXY 090756Z AUTO 10013KT 9SM OVC007 01/M02 A2961 RMK AO2 SNB29E42 CIG 006V012 SLP030 P0000 T00061017
Pressure 29.62 in
Visibility 9.0 miles
Clouds Overcast 700 ft
Windchill 31 °F
Dew Point 30 °F
Humidity 95%
Rainfall in
Snow Depth Not available.
7:08 AM 5:35 PM
New Moon, 1% visible
METAR KCXY 090756Z AUTO 10013KT 9SM OVC007 01/M02 A2961 RMK AO2 SNB29E42 CIG 006V012 SLP030 P0000 T00061017

10-Day Weather Forecast

Almanac

Astronomy

Feb. 09, 2016 Rise Set
Actual Time
Civil Twilight
Nautical Twilight
Astronomical Twilight
Moon
Length of Visible Light
Length of Day
Tomorrow will be .
, % of the Moon is Illuminated

Today's Extremes

State Highs State Lows

Community

WunderPhotos

Upload Photos

1,891,571 photos uploaded!

WunderBlog® & News

Nearby

Air Quality

  Air Quality AQ Index Pollutant
Not available.

Snow Depth

Station Depth Elevation

Earthquake Activity

City Distance Mag. Time & Date
Minimum magnitude displayed is 2.5.

Coastal Water Temperatures

Place Temperature

Stations

Nearby Weather Stations

Station Location Temp. Windchill Dew Point Humidity Wind Precip. Elev Updated Type
                   

Watches & Warnings

Winter Weather Advisory
Issued: 10:53 PM EST Feb. 8, 2016 – National Weather Service

... Winter Weather Advisory remains in effect until 5 am EST
Wednesday...

* snow accumulations... 3 to 5 inches... with the highest amounts on
the ridgetops.

* Timing... tonight through late Tuesday evening.

* Impacts... untreated roads will likely become snow covered and
hazardous.

Precautionary/preparedness actions...

Hazardous winter weather conditions are expected or occurring.
Use caution if traveling. For the latest weather information... go
to weather.Gov/statecollege or monitor NOAA Weather Radio.

Report snow or ice accumulation to the National Weather Service
State College by sending an email to ctp.Stormreports@noaa.Gov...
posting to the NWS State College facebook Page... or tweet
@nwsstatecollege with the hashtag c... T... p... W... x.